createdAt,value
2022-10-11T00:00:12.164Z,72.43
2022-10-11T00:03:00.263Z,72.51
2022-10-11T00:05:28.087Z,72.46
2022-10-11T00:07:55.013Z,72.68
2022-10-11T00:10:22.217Z,73.02
2022-10-11T00:12:49.713Z,72.83
2022-10-11T00:15:20.172Z,72.89
2022-10-11T00:17:47.765Z,73.08
2022-10-11T00:20:14.772Z,72.79
2022-10-11T00:22:42.777Z,72.96
2022-10-11T00:25:12.486Z,72.88
2022-10-11T00:27:39.907Z,72.69
2022-10-11T00:30:08.305Z,73.05
2022-10-11T00:32:37.811Z,72.92
2022-10-11T00:35:07.248Z,73.15
2022-10-11T00:37:36.610Z,72.81
2022-10-11T00:40:12.988Z,72.83
2022-10-11T00:42:40.726Z,72.83
2022-10-11T00:45:26.531Z,72.72
2022-10-11T00:47:57.063Z,72.86
2022-10-11T00:50:25.294Z,73.01
2022-10-11T00:53:09.964Z,72.97
2022-10-11T00:55:47.551Z,73.35
2022-10-11T00:58:15.008Z,73.25
2022-10-11T01:00:42.074Z,73.06
2022-10-11T01:03:08.964Z,73.56
2022-10-11T01:05:39.873Z,73.50
2022-10-11T01:08:08.534Z,73.56
2022-10-11T01:10:35.673Z,73.46
2022-10-11T01:13:50.146Z,73.71
2022-10-11T01:16:44.230Z,73.35
2022-10-11T01:20:19.311Z,73.70
2022-10-11T01:23:20.349Z,73.88
2022-10-11T01:26:09.327Z,73.95
2022-10-11T01:28:46.770Z,73.87
2022-10-11T01:31:43.940Z,73.57
2022-10-11T01:34:25.731Z,73.97
2022-10-11T01:37:22.558Z,73.75
2022-10-11T01:40:05.223Z,73.67
2022-10-11T01:42:34.153Z,73.96
2022-10-11T01:45:00.976Z,74.00
2022-10-11T01:47:27.932Z,73.77
2022-10-11T01:50:01.464Z,73.68
2022-10-11T01:52:36.509Z,74.02
2022-10-11T01:55:13.391Z,73.82
2022-10-11T01:57:49.020Z,74.01
2022-10-11T02:00:22.884Z,74.21
2022-10-11T02:03:33.970Z,74.23
2022-10-11T02:06:39.884Z,74.07
2022-10-11T02:09:20.537Z,74.16
2022-10-11T02:11:47.713Z,74.73
2022-10-11T02:14:30.734Z,74.30
2022-10-11T02:17:07.594Z,74.61
2022-10-11T02:19:45.633Z,74.52
2022-10-11T02:22:24.672Z,75.01
2022-10-11T02:24:57.859Z,74.66
2022-10-11T02:27:30.599Z,74.48
2022-10-11T02:30:02.371Z,74.17
2022-10-11T02:32:32.357Z,74.62
2022-10-11T02:35:02.781Z,74.45
2022-10-11T02:37:56.767Z,74.98
2022-10-11T02:40:35.244Z,74.18
2022-10-11T02:43:17.583Z,74.40
2022-10-11T02:45:55.948Z,74.30
2022-10-11T02:48:25.236Z,74.65
2022-10-11T02:50:56.092Z,74.59
2022-10-11T02:53:25.420Z,74.94
2022-10-11T02:55:54.812Z,74.42
2022-10-11T02:58:23.370Z,74.54
2022-10-11T03:00:50.966Z,74.49
2022-10-11T03:03:17.924Z,74.97
2022-10-11T03:05:45.064Z,74.52
2022-10-11T03:08:14.832Z,74.38
2022-10-11T03:10:42.502Z,74.34
2022-10-11T03:13:09.653Z,74.39
2022-10-11T03:15:36.739Z,74.80
2022-10-11T03:18:03.997Z,75.75
2022-10-11T03:20:31.124Z,75.43
2022-10-11T03:22:57.990Z,75.93
2022-10-11T03:25:24.867Z,76.08
2022-10-11T03:27:52.330Z,75.82
2022-10-11T03:30:20.162Z,75.69
2022-10-11T03:32:47.057Z,75.61
2022-10-11T03:35:14.513Z,75.78
2022-10-11T03:37:41.400Z,75.07
2022-10-11T03:40:13.517Z,75.59
2022-10-11T03:42:41.127Z,75.62
2022-10-11T03:45:09.872Z,75.81
2022-10-11T03:47:40.498Z,75.76
2022-10-11T03:50:09.630Z,75.99
2022-10-11T03:52:36.995Z,75.73
2022-10-11T03:55:04.788Z,75.65
2022-10-11T03:57:31.926Z,75.69
2022-10-11T03:59:58.718Z,75.38
2022-10-11T04:02:25.663Z,75.29
2022-10-11T04:04:52.670Z,75.57
2022-10-11T04:07:19.535Z,75.22
2022-10-11T04:09:46.519Z,75.10
2022-10-11T04:12:13.478Z,74.58
2022-10-11T04:14:40.718Z,75.19
2022-10-11T04:17:07.643Z,74.60
2022-10-11T04:19:37.197Z,75.24
2022-10-11T04:22:07.664Z,75.12
2022-10-11T04:24:34.456Z,75.86
2022-10-11T04:27:01.489Z,75.97
2022-10-11T04:29:32.412Z,76.03
2022-10-11T04:32:00.113Z,75.91
2022-10-11T04:34:27.253Z,75.49
2022-10-11T04:36:54.205Z,75.66
2022-10-11T04:39:21.284Z,75.85
2022-10-11T04:41:48.384Z,75.66
2022-10-11T04:44:15.201Z,75.67
2022-10-11T04:46:42.110Z,75.91
2022-10-11T04:49:09.447Z,76.03
2022-10-11T04:51:36.343Z,75.77
2022-10-11T04:54:04.129Z,75.63
2022-10-11T04:56:31.374Z,75.57
2022-10-11T04:58:58.207Z,75.61
2022-10-11T05:01:25.028Z,75.33
2022-10-11T05:03:52.273Z,75.83
2022-10-11T05:06:19.862Z,75.47
2022-10-11T05:08:46.729Z,75.83
2022-10-11T05:11:16.943Z,75.68
2022-10-11T05:13:45.713Z,75.77
2022-10-11T05:16:14.218Z,76.13
2022-10-11T05:18:41.564Z,75.97
2022-10-11T05:21:39.073Z,76.27
2022-10-11T05:24:07.015Z,76.36
2022-10-11T05:26:34.138Z,76.27
2022-10-11T05:29:01.175Z,76.00
2022-10-11T05:31:28.340Z,76.30
2022-10-11T05:33:55.596Z,76.54
2022-10-11T05:36:22.498Z,76.42
2022-10-11T05:38:49.543Z,76.09
2022-10-11T05:41:17.475Z,76.55
2022-10-11T05:43:44.845Z,76.24
2022-10-11T05:46:12.577Z,76.42
2022-10-11T05:48:40.108Z,76.80
2022-10-11T05:51:10.399Z,76.32
2022-10-11T05:53:39.305Z,76.67
2022-10-11T05:56:19.480Z,76.24
2022-10-11T05:58:46.745Z,76.44
2022-10-11T06:01:28.309Z,76.61
2022-10-11T06:03:55.996Z,76.75
2022-10-11T06:06:23.016Z,76.89
2022-10-11T06:08:50.351Z,77.44
2022-10-11T06:11:27.463Z,77.50
2022-10-11T06:13:57.976Z,77.84
2022-10-11T06:16:26.086Z,77.97
2022-10-11T06:18:54.732Z,77.85
2022-10-11T06:21:22.184Z,77.75
2022-10-11T06:23:58.280Z,77.93
2022-10-11T06:26:28.203Z,77.69
2022-10-11T06:28:55.395Z,77.83
2022-10-11T06:31:22.498Z,77.33
2022-10-11T06:33:49.574Z,77.47
2022-10-11T06:36:17.380Z,77.22
2022-10-11T06:38:45.360Z,77.91
2022-10-11T06:41:24.962Z,77.66
2022-10-11T06:43:52.383Z,77.74
2022-10-11T06:46:22.049Z,78.24
2022-10-11T06:48:50.176Z,77.67
2022-10-11T06:51:21.033Z,77.96
2022-10-11T06:53:57.852Z,77.08
2022-10-11T06:56:27.904Z,77.30
2022-10-11T06:58:56.755Z,77.44
2022-10-11T07:01:24.671Z,77.35
2022-10-11T07:03:54.110Z,77.80
2022-10-11T07:06:25.336Z,77.31
2022-10-11T07:08:53.686Z,77.18
2022-10-11T07:11:27.596Z,77.03
2022-10-11T07:14:05.806Z,77.12
2022-10-11T07:16:32.738Z,76.61
2022-10-11T07:19:02.752Z,76.67
2022-10-11T07:21:32.447Z,77.62
2022-10-11T07:24:00.173Z,77.43
2022-10-11T07:26:31.345Z,77.56
2022-10-11T07:29:00.931Z,76.47
2022-10-11T07:31:28.137Z,75.99
2022-10-11T07:33:55.084Z,75.78
2022-10-11T07:36:25.516Z,75.71
2022-10-11T07:38:52.672Z,75.99
2022-10-11T07:41:20.365Z,75.47
2022-10-11T07:43:49.605Z,74.91
2022-10-11T07:46:18.338Z,75.35
2022-10-11T07:48:45.438Z,75.01
2022-10-11T07:51:20.461Z,74.55
2022-10-11T07:53:55.437Z,74.66
2022-10-11T07:56:26.691Z,74.39
2022-10-11T07:59:05.410Z,74.61
2022-10-11T08:01:33.229Z,74.89
2022-10-11T08:04:00.528Z,74.50
2022-10-11T08:06:32.476Z,74.84
2022-10-11T08:09:01.441Z,75.41
2022-10-11T08:11:35.977Z,74.22
2022-10-11T08:14:08.652Z,74.19
2022-10-11T08:16:38.123Z,74.16
2022-10-11T08:19:07.352Z,73.41
2022-10-11T08:21:34.861Z,73.42
2022-10-11T08:24:05.061Z,72.76
2022-10-11T08:26:33.609Z,72.72
2022-10-11T08:29:05.138Z,72.82
2022-10-11T08:31:34.888Z,72.91
2022-10-11T08:34:02.816Z,73.42
2022-10-11T08:36:29.648Z,73.33
2022-10-11T08:38:57.089Z,73.14
2022-10-11T08:41:54.526Z,72.58
2022-10-11T08:45:10.033Z,72.97
2022-10-11T08:47:45.340Z,72.58
2022-10-11T08:50:23.728Z,73.20
2022-10-11T08:53:04.843Z,73.15
2022-10-11T08:55:40.930Z,73.02
2022-10-11T08:58:17.153Z,72.71
2022-10-11T09:00:50.147Z,72.43
2022-10-11T09:03:22.950Z,72.16
2022-10-11T09:06:25.193Z,72.09
2022-10-11T09:09:42.518Z,71.79
2022-10-11T09:12:14.642Z,71.71
2022-10-11T09:15:12.296Z,70.21
2022-10-11T09:18:11.297Z,69.93
2022-10-11T09:21:02.133Z,70.52
2022-10-11T09:23:59.540Z,70.34
2022-10-11T09:26:33.148Z,69.74
2022-10-11T09:29:17.176Z,70.17
2022-10-11T09:31:53.621Z,69.41
2022-10-11T09:34:26.429Z,69.38
2022-10-11T09:37:24.667Z,69.70
2022-10-11T09:40:10.829Z,67.48
2022-10-11T09:42:37.577Z,67.48
2022-10-11T09:45:25.194Z,67.46
2022-10-11T09:47:57.136Z,67.40
2022-10-11T09:50:26.464Z,66.85
2022-10-11T09:53:03.546Z,66.21
2022-10-11T09:55:41.553Z,65.09
2022-10-11T09:58:34.226Z,63.58
2022-10-11T10:04:13.135Z,63.11
2022-10-11T10:06:41.235Z,62.35
2022-10-11T10:09:30.390Z,62.99
2022-10-11T10:11:58.279Z,62.85
2022-10-11T10:14:30.792Z,62.57
2022-10-11T10:17:14.530Z,59.69
2022-10-11T10:19:55.305Z,61.23
2022-10-11T10:22:29.568Z,61.42
2022-10-11T10:25:00.117Z,59.00
2022-10-11T10:27:30.553Z,59.55
2022-10-11T10:30:16.783Z,58.67
2022-10-11T10:33:03.009Z,59.57
2022-10-11T10:36:03.360Z,59.02
2022-10-11T10:38:52.202Z,59.79
2022-10-11T10:41:19.751Z,59.51
2022-10-11T10:43:58.577Z,60.08
2022-10-11T10:47:16.670Z,59.75
2022-10-11T10:49:54.726Z,60.40
2022-10-11T10:52:37.072Z,59.03
2022-10-11T10:55:40.209Z,58.76
2022-10-11T10:58:31.922Z,57.82
2022-10-11T11:01:13.768Z,58.68
2022-10-11T11:03:53.483Z,58.62
2022-10-11T11:06:41.590Z,58.73
2022-10-11T11:09:43.577Z,58.36
2022-10-11T11:12:27.964Z,58.77
2022-10-11T11:15:29.232Z,60.01
2022-10-11T11:18:41.200Z,57.98
2022-10-11T11:21:39.133Z,57.96
2022-10-11T11:24:15.027Z,58.24
2022-10-11T11:27:04.863Z,58.75
2022-10-11T11:30:14.360Z,58.74
2022-10-11T11:33:21.117Z,58.79
2022-10-11T11:35:56.417Z,58.90
2022-10-11T11:38:40.846Z,59.22
2022-10-11T11:41:27.835Z,57.99
2022-10-11T11:44:11.358Z,58.34
2022-10-11T11:46:52.603Z,58.31
2022-10-11T11:49:32.157Z,58.43
2022-10-11T11:52:00.622Z,57.75
2022-10-11T11:54:48.004Z,58.48
2022-10-11T11:57:46.037Z,57.99
2022-10-11T12:00:20.709Z,57.77
2022-10-11T12:03:00.716Z,57.01
2022-10-11T12:05:36.025Z,57.68
2022-10-11T12:08:26.683Z,57.16
2022-10-11T12:11:02.487Z,57.44
2022-10-11T12:13:40.887Z,57.91
2022-10-11T12:16:14.585Z,57.45
2022-10-11T12:18:57.161Z,57.65
2022-10-11T12:21:35.154Z,56.60
2022-10-11T12:24:23.036Z,56.69
2022-10-11T12:26:56.031Z,56.89
2022-10-11T12:29:51.122Z,55.82
2022-10-11T12:32:27.806Z,56.14
2022-10-11T12:35:40.039Z,54.94
2022-10-11T12:38:28.592Z,55.01
2022-10-11T12:41:03.248Z,55.46
2022-10-11T12:43:36.329Z,55.03
2022-10-11T12:46:28.270Z,54.71
2022-10-11T12:49:32.346Z,53.74
2022-10-11T12:52:22.935Z,53.78
2022-10-11T12:55:13.517Z,53.88
2022-10-11T12:58:07.549Z,54.44
2022-10-11T13:00:40.457Z,54.96
2022-10-11T13:04:07.223Z,54.91
2022-10-11T13:06:44.259Z,54.72
2022-10-11T13:09:11.383Z,53.74
2022-10-11T13:11:52.570Z,53.52
2022-10-11T13:14:24.768Z,53.40
2022-10-11T13:17:04.000Z,54.26
2022-10-11T13:19:35.645Z,53.95
2022-10-11T13:22:15.698Z,54.45
2022-10-11T13:24:43.781Z,54.13
2022-10-11T13:27:22.149Z,54.52
2022-10-11T13:29:53.026Z,54.07
2022-10-11T13:32:28.306Z,53.98
2022-10-11T13:35:06.872Z,53.29
2022-10-11T13:37:45.876Z,53.18
2022-10-11T13:40:21.063Z,52.93
2022-10-11T13:42:49.550Z,53.27
2022-10-11T13:45:24.835Z,53.03
2022-10-11T13:47:54.257Z,53.30
2022-10-11T13:50:31.878Z,53.08
2022-10-11T13:53:11.478Z,52.33
2022-10-11T13:55:59.532Z,52.98
2022-10-11T13:58:35.350Z,52.96
2022-10-11T14:01:16.611Z,53.42
2022-10-11T14:03:54.795Z,54.05
2022-10-11T14:06:22.416Z,53.00
2022-10-11T14:08:56.371Z,52.76
2022-10-11T14:11:37.753Z,53.38
2022-10-11T14:14:37.635Z,53.40
2022-10-11T14:17:19.442Z,54.36
2022-10-11T14:20:07.262Z,52.90
2022-10-11T14:22:37.371Z,52.92
2022-10-11T14:25:04.730Z,52.57
2022-10-11T14:27:32.241Z,52.18
2022-10-11T14:30:25.206Z,52.27
2022-10-11T14:32:51.133Z,53.01
2022-10-11T14:35:23.703Z,51.58
2022-10-11T14:37:51.335Z,51.52
2022-10-11T14:40:25.977Z,52.36
2022-10-11T14:42:53.704Z,51.85
2022-10-11T14:45:21.462Z,51.97
2022-10-11T14:47:48.965Z,51.87
2022-10-11T14:50:28.336Z,51.35
2022-10-11T14:52:55.525Z,51.12
2022-10-11T14:55:23.511Z,51.40
2022-10-11T14:57:50.680Z,51.29
2022-10-11T15:00:26.396Z,52.13
2022-10-11T15:02:55.198Z,52.91
2022-10-11T15:05:29.801Z,53.23
2022-10-11T15:08:00.246Z,53.15
2022-10-11T15:10:35.915Z,52.49
2022-10-11T15:13:05.212Z,53.23
2022-10-11T15:15:35.396Z,54.77
2022-10-11T15:18:05.016Z,55.14
2022-10-11T15:20:40.113Z,55.43
2022-10-11T15:23:10.026Z,54.76
2022-10-11T15:25:40.418Z,54.42
2022-10-11T15:28:11.329Z,54.47
2022-10-11T15:30:41.578Z,54.15
2022-10-11T15:33:09.072Z,53.89
2022-10-11T15:35:36.207Z,54.21
2022-10-11T15:38:03.930Z,54.57
2022-10-11T15:40:37.004Z,54.13
2022-10-11T15:43:04.596Z,54.36
2022-10-11T15:45:31.763Z,55.25
2022-10-11T15:47:59.268Z,55.36
2022-10-11T15:50:34.470Z,55.62
2022-10-11T15:53:07.868Z,55.97
2022-10-11T15:55:39.282Z,55.96
2022-10-11T15:58:29.146Z,56.57
2022-10-11T16:01:00.531Z,56.33
2022-10-11T16:03:30.453Z,56.78
2022-10-11T16:06:04.614Z,56.58
2022-10-11T16:08:33.517Z,57.25
2022-10-11T16:11:01.464Z,57.31
2022-10-11T16:13:28.595Z,57.72
2022-10-11T16:15:55.597Z,57.76
2022-10-11T16:18:22.757Z,58.35
2022-10-11T16:20:52.474Z,58.60
2022-10-11T16:23:22.299Z,59.42
2022-10-11T16:26:01.926Z,59.13
2022-10-11T16:28:30.909Z,59.82
2022-10-11T16:30:58.098Z,59.48
2022-10-11T16:33:25.758Z,59.61
2022-10-11T16:35:53.026Z,56.16
2022-10-11T16:38:20.389Z,57.37
2022-10-11T16:40:47.504Z,56.44
2022-10-11T16:43:14.630Z,57.09
2022-10-11T16:45:41.492Z,56.22
2022-10-11T16:48:08.541Z,56.10
2022-10-11T16:50:39.508Z,56.31
2022-10-11T16:53:06.861Z,55.89
2022-10-11T16:55:33.867Z,54.55
2022-10-11T16:58:00.825Z,54.76
2022-10-11T17:00:27.950Z,54.86
2022-10-11T17:02:55.017Z,54.41
2022-10-11T17:05:22.084Z,55.28
2022-10-11T17:07:49.054Z,56.22
2022-10-11T17:10:16.059Z,56.06
2022-10-11T17:12:46.549Z,56.46
2022-10-11T17:15:17.205Z,56.73
2022-10-11T17:17:44.186Z,56.94
2022-10-11T17:20:11.444Z,56.87
2022-10-11T17:22:38.621Z,56.67
2022-10-11T17:25:07.150Z,56.61
2022-10-11T17:27:34.213Z,56.68
2022-10-11T17:30:01.386Z,56.87
2022-10-11T17:32:28.473Z,57.30
2022-10-11T17:34:55.445Z,57.07
2022-10-11T17:37:22.477Z,57.33
2022-10-11T17:39:49.550Z,57.33
2022-10-11T17:42:17.720Z,57.59
2022-10-11T17:44:45.268Z,58.20
2022-10-11T17:47:13.478Z,58.73
2022-10-11T17:49:40.673Z,59.96
2022-10-11T17:52:07.574Z,60.47
2022-10-11T17:54:35.830Z,60.07
2022-10-11T17:57:03.503Z,59.83
2022-10-11T17:59:32.295Z,60.42
2022-10-11T18:01:59.734Z,60.43
2022-10-11T18:04:30.301Z,60.29
2022-10-11T18:06:57.644Z,60.55
2022-10-11T18:09:24.944Z,60.00
2022-10-11T18:11:51.910Z,60.03
2022-10-11T18:14:19.531Z,59.53
2022-10-11T18:16:46.663Z,59.78
2022-10-11T18:19:14.316Z,59.52
2022-10-11T18:21:42.192Z,58.73
2022-10-11T18:24:15.907Z,57.98
2022-10-11T18:26:45.972Z,58.86
2022-10-11T18:29:13.517Z,59.17
2022-10-11T18:31:41.549Z,60.60
2022-10-11T18:34:10.917Z,61.09
2022-10-11T18:36:39.219Z,62.21
2022-10-11T18:39:11.501Z,62.17
2022-10-11T18:41:42.330Z,62.20
2022-10-11T18:44:14.081Z,62.18
2022-10-11T18:46:42.881Z,62.54
2022-10-11T18:49:11.742Z,62.77
2022-10-11T18:51:42.128Z,62.92
2022-10-11T18:54:15.444Z,63.67
2022-10-11T18:56:46.001Z,63.92
2022-10-11T18:59:13.341Z,64.46
2022-10-11T19:01:44.671Z,64.48
2022-10-11T19:04:16.061Z,64.14
2022-10-11T19:06:48.025Z,63.93
2022-10-11T19:09:22.417Z,62.89
2022-10-11T19:11:55.358Z,62.55
2022-10-11T19:14:28.742Z,60.99
2022-10-11T19:16:58.080Z,60.66
2022-10-11T19:19:29.831Z,61.05
2022-10-11T19:21:57.689Z,61.46
2022-10-11T19:24:28.942Z,61.37
2022-10-11T19:27:02.352Z,61.08
2022-10-11T19:29:31.762Z,60.71
2022-10-11T19:32:03.004Z,60.98
2022-10-11T19:34:32.691Z,60.86
2022-10-11T19:37:01.298Z,60.95
2022-10-11T19:39:29.614Z,61.07
2022-10-11T19:41:56.832Z,62.12
2022-10-11T19:44:23.752Z,61.29
2022-10-11T19:46:52.339Z,61.02
2022-10-11T19:49:23.909Z,61.12
2022-10-11T19:51:51.836Z,61.52
2022-10-11T19:54:18.968Z,61.31
2022-10-11T19:56:45.907Z,61.16
2022-10-11T19:59:14.680Z,60.62
2022-10-11T20:01:45.508Z,60.78
2022-10-11T20:04:39.630Z,61.26
2022-10-11T20:07:02.187Z,61.48
2022-10-11T20:09:30.937Z,61.69
2022-10-11T20:11:59.333Z,61.89
2022-10-11T20:14:26.890Z,62.05
2022-10-11T20:16:54.004Z,62.44
2022-10-11T20:19:25.017Z,62.46
2022-10-11T20:21:53.574Z,62.76
2022-10-11T20:24:21.711Z,62.60
2022-10-11T20:26:48.770Z,63.01
2022-10-11T20:29:20.732Z,62.93
2022-10-11T20:31:48.155Z,63.15
2022-10-11T20:34:15.519Z,62.85
2022-10-11T20:36:48.222Z,63.09
2022-10-11T20:39:18.010Z,62.75
2022-10-11T20:41:45.424Z,63.11
2022-10-11T20:44:15.920Z,63.51
2022-10-11T20:46:43.032Z,63.68
2022-10-11T20:49:12.449Z,63.33
2022-10-11T20:51:41.932Z,63.22
2022-10-11T20:54:10.263Z,63.57
2022-10-11T20:56:38.707Z,63.71
2022-10-11T20:59:06.927Z,63.97
2022-10-11T21:01:43.322Z,63.75
2022-10-11T21:04:19.211Z,63.70
2022-10-11T21:06:48.206Z,63.76
2022-10-11T21:09:17.064Z,63.65
2022-10-11T21:11:44.312Z,64.11
2022-10-11T21:14:11.770Z,64.02
2022-10-11T21:16:38.664Z,63.94
2022-10-11T21:19:06.347Z,64.21
2022-10-11T21:21:33.313Z,64.25
2022-10-11T21:24:02.241Z,64.56
2022-10-11T21:26:30.948Z,64.10
2022-10-11T21:29:04.035Z,64.11
2022-10-11T21:31:34.030Z,64.31
2022-10-11T21:34:02.703Z,64.25
2022-10-11T21:36:29.782Z,64.22
2022-10-11T21:38:57.075Z,64.33
2022-10-11T21:41:26.905Z,63.34
2022-10-11T21:43:54.232Z,62.59
2022-10-11T21:46:47.939Z,62.46
2022-10-11T21:49:16.971Z,62.18
2022-10-11T21:51:45.213Z,62.52
2022-10-11T21:54:12.425Z,62.42
2022-10-11T21:56:39.377Z,63.13
2022-10-11T21:59:09.467Z,63.56
2022-10-11T22:01:41.155Z,63.90
2022-10-11T22:04:12.100Z,64.15
2022-10-11T22:06:41.190Z,64.22
2022-10-11T22:09:24.434Z,63.51
2022-10-11T22:11:58.208Z,63.56
2022-10-11T22:14:31.683Z,64.51
2022-10-11T22:17:02.385Z,64.44
2022-10-11T22:19:33.707Z,64.20
2022-10-11T22:22:02.820Z,63.81
2022-10-11T22:24:33.953Z,63.86
2022-10-11T22:27:13.072Z,63.05
2022-10-11T22:29:40.137Z,63.48
2022-10-11T22:32:07.430Z,63.23
2022-10-11T22:34:34.232Z,63.54
2022-10-11T22:37:01.334Z,63.35
2022-10-11T22:39:29.766Z,63.34
2022-10-11T22:41:56.641Z,63.96
2022-10-11T22:44:24.860Z,63.60
2022-10-11T22:46:51.883Z,63.06
2022-10-11T22:49:18.646Z,62.53
2022-10-11T22:51:45.515Z,62.53
2022-10-11T22:54:12.551Z,63.03
2022-10-11T22:56:39.425Z,63.25
2022-10-11T22:59:06.871Z,63.40
2022-10-11T23:01:33.986Z,63.02
2022-10-11T23:04:00.997Z,63.39
2022-10-11T23:06:27.920Z,62.40
2022-10-11T23:08:55.003Z,62.20
2022-10-11T23:11:21.959Z,61.38
2022-10-11T23:13:48.716Z,61.62
2022-10-11T23:16:16.070Z,61.07
2022-10-11T23:18:43.015Z,60.57
2022-10-11T23:21:10.465Z,60.72
2022-10-11T23:23:40.008Z,60.19
2022-10-11T23:26:12.388Z,60.50
2022-10-11T23:28:40.747Z,60.43
2022-10-11T23:31:13.416Z,60.26
2022-10-11T23:33:41.145Z,60.63
2022-10-11T23:36:19.642Z,60.58
2022-10-11T23:38:58.114Z,60.70
2022-10-11T23:41:28.910Z,60.26
2022-10-11T23:43:56.367Z,60.12
2022-10-11T23:46:23.724Z,59.87
2022-10-11T23:48:51.085Z,59.89
2022-10-11T23:51:18.296Z,60.09
2022-10-11T23:53:45.226Z,60.08
2022-10-11T23:56:12.198Z,59.88
2022-10-11T23:58:39.633Z,59.89
